Time;durP1;ratioP1;P1;durP2;ratioP2;P2;SDS_P1;SDS_P2;PMS_P1;PMS_P2;Temp;Humidity;BMP_temperature;BMP_pressure;BME280_temperature;BME280_humidity;BME280_pressure;Samples;Min_cycle;Max_cycle;Signal;HPM_P1;HPM_P2
2021/04/19 00:01:27;;;;;;;16.15;11.73;;;;;;;2.41;71.85;94308.75;5028746;28;20086;-71
2021/04/19 00:03:53;;;;;;;14.70;11.18;;;;;;;2.45;71.64;94310.97;5000235;28;20030;-71
2021/04/19 00:06:19;;;;;;;17.23;11.32;;;;;;;2.48;72.82;94304.75;5050013;28;20028;-71
2021/04/19 00:08:49;;;;;;;17.25;11.45;;;;;;;2.48;72.28;94302.19;5024264;28;20048;-70
2021/04/19 00:11:19;;;;;;;16.23;11.40;;;;;;;2.41;71.76;94307.00;5041025;28;20040;-71
2021/04/19 00:13:49;;;;;;;17.15;11.35;;;;;;;2.46;71.80;94310.06;5019077;28;20029;-71
2021/04/19 00:16:15;;;;;;;16.13;10.95;;;;;;;2.51;71.47;94297.56;5039598;28;20064;-71
2021/04/19 00:18:43;;;;;;;16.00;11.18;;;;;;;2.48;72.05;94294.44;5031987;28;20060;-71
2021/04/19 00:21:10;;;;;;;17.50;11.73;;;;;;;2.49;71.68;94296.09;5072599;28;20028;-70
2021/04/19 00:23:35;;;;;;;15.32;11.57;;;;;;;2.57;71.47;94291.13;5038669;28;20033;-71
2021/04/19 00:26:01;;;;;;;17.75;10.88;;;;;;;2.59;72.58;94291.00;5036711;28;20032;-71
2021/04/19 00:28:28;;;;;;;16.50;11.48;;;;;;;2.63;72.26;94293.22;5064758;28;20046;-71
2021/04/19 00:31:20;;;;;;;14.70;11.15;;;;;;;2.64;71.47;94294.88;5039541;28;20121;-71
2021/04/19 00:33:45;;;;;;;13.93;11.10;;;;;;;2.63;72.05;94289.84;4997549;28;20037;-71
2021/04/19 00:36:12;;;;;;;15.25;11.40;;;;;;;2.68;71.77;94290.31;4965354;28;20121;-70
2021/04/19 00:38:48;;;;;;;15.43;11.38;;;;;;;2.69;71.99;94287.59;4982176;28;20034;-70
2021/04/19 00:41:13;;;;;;;15.93;11.77;;;;;;;2.63;72.11;94288.06;4997783;28;20056;-71
2021/04/19 00:43:39;;;;;;;15.20;11.52;;;;;;;2.73;71.90;94287.34;4965486;28;20022;-71
2021/04/19 00:46:05;;;;;;;15.50;11.80;;;;;;;2.72;71.79;94291.69;4996961;28;20030;-71
2021/04/19 00:48:34;;;;;;;15.63;12.07;;;;;;;2.69;72.00;94286.75;4981706;28;20030;-71
2021/04/19 00:51:00;;;;;;;15.18;11.60;;;;;;;2.64;71.99;94287.13;4981167;28;20077;-71
2021/04/19 00:53:36;;;;;;;16.90;12.25;;;;;;;2.57;72.10;94282.56;4977752;28;20100;-70
2021/04/19 00:56:08;;;;;;;16.50;12.00;;;;;;;2.75;71.82;94285.44;4997920;28;20041;-71
2021/04/19 00:58:45;;;;;;;16.77;12.23;;;;;;;2.77;71.62;94281.81;4966830;28;20128;-71
2021/04/19 01:01:13;;;;;;;17.48;12.82;;;;;;;2.83;72.17;94272.78;4963651;28;20108;-71
2021/04/19 01:03:39;;;;;;;18.02;12.85;;;;;;;2.84;72.53;94280.41;4969116;28;20039;-71
2021/04/19 01:06:05;;;;;;;18.75;12.25;;;;;;;2.77;72.44;94279.22;4982881;28;20042;-71
2021/04/19 01:08:47;;;;;;;17.10;12.23;;;;;;;2.86;72.40;94278.50;4981084;28;20064;-71
2021/04/19 01:11:13;;;;;;;17.88;13.18;;;;;;;2.95;72.24;94279.53;5044890;28;20052;-70
2021/04/19 01:13:42;;;;;;;16.92;12.73;;;;;;;2.90;71.57;94275.66;5018430;28;20071;-71
2021/04/19 01:16:10;;;;;;;;;;;;;;;2.73;72.91;94275.22;5033997;28;20025;-71
2021/04/19 01:18:36;;;;;;;15.82;11.50;;;;;;;2.74;72.86;94274.28;5034799;28;19967;-70
2021/04/19 01:21:08;;;;;;;17.08;12.20;;;;;;;2.79;73.12;94274.75;5036609;28;20032;-70
2021/04/19 01:23:50;;;;;;;18.40;12.60;;;;;;;2.84;72.45;94277.81;5044238;28;20067;-70
2021/04/19 01:26:20;;;;;;;15.90;11.55;;;;;;;2.84;72.73;94277.81;5055315;28;20017;-72
2021/04/19 01:28:59;;;;;;;16.40;12.20;;;;;;;2.87;72.60;94277.56;5037932;28;20033;-70
2021/04/19 01:31:37;;;;;;;;;;;;;;;2.78;72.74;94274.88;5034485;28;20047;-70
2021/04/19 01:34:05;;;;;;;15.50;11.93;;;;;;;2.90;72.98;94275.66;5053903;28;19963;-71
2021/04/19 01:36:30;;;;;;;18.85;12.93;;;;;;;2.87;73.94;94282.72;5037488;28;20087;-71
2021/04/19 01:39:06;;;;;;;18.17;13.00;;;;;;;2.67;73.56;94275.72;5039359;28;20025;-71
2021/04/19 01:41:31;;;;;;;16.60;12.40;;;;;;;2.77;73.88;94268.06;5024896;28;20088;-71
2021/04/19 01:43:57;;;;;;;17.85;13.27;;;;;;;2.84;73.75;94276.97;5034675;28;20033;-72
2021/04/19 01:46:23;;;;;;;17.88;12.60;;;;;;;2.88;73.37;94270.63;5047905;28;20024;-71
2021/04/19 01:48:48;;;;;;;17.20;12.85;;;;;;;2.93;74.02;94276.25;5025953;28;20035;-71
2021/04/19 01:51:14;;;;;;;16.58;12.02;;;;;;;2.95;72.95;94276.13;5013798;28;20041;-71
2021/04/19 01:53:41;;;;;;;17.08;12.20;;;;;;;2.98;71.81;94270.72;5050061;28;20059;-70
2021/04/19 01:56:07;;;;;;;16.77;12.07;;;;;;;2.98;72.70;94281.06;5055898;28;20045;-70
2021/04/19 01:58:34;;;;;;;16.27;12.30;;;;;;;2.93;72.76;94275.44;5017306;28;20026;-70
2021/04/19 02:01:05;;;;;;;19.52;12.60;;;;;;;2.85;73.25;94273.44;5034642;28;20035;-71
2021/04/19 02:04:15;;;;;;;16.45;12.32;;;;;;;2.92;72.91;94279.75;5025717;28;20016;-71
2021/04/19 02:07:04;;;;;;;18.42;12.73;;;;;;;2.82;73.96;94271.13;4996076;28;20065;-71
2021/04/19 02:09:58;;;;;;;19.25;13.43;;;;;;;2.46;74.71;94273.88;4996093;28;20122;-71
2021/04/19 02:12:49;;;;;;;19.27;13.60;;;;;;;2.52;74.64;94268.22;4935507;29;20061;-71
2021/04/19 02:15:18;;;;;;;20.23;14.30;;;;;;;2.42;74.84;94272.50;4922415;29;20023;-71
2021/04/19 02:18:14;;;;;;;19.10;14.32;;;;;;;2.55;74.78;94268.94;4919648;29;20049;-70
2021/04/19 02:20:46;;;;;;;16.45;12.80;;;;;;;2.75;73.66;94267.34;4920855;29;20087;-71
2021/04/19 02:23:35;;;;;;;18.90;13.93;;;;;;;2.80;73.51;94266.06;4894003;29;20055;-71
2021/04/19 02:26:32;;;;;;;19.25;13.77;;;;;;;2.87;73.35;94263.81;4867489;29;20120;-70
2021/04/19 02:29:05;;;;;;;17.95;13.80;;;;;;;2.84;74.24;94266.63;4872526;29;20036;-71
2021/04/19 02:31:48;;;;;;;18.08;13.48;;;;;;;2.86;73.96;94268.16;4870254;29;20041;-71
2021/04/19 02:34:34;;;;;;;18.52;13.25;;;;;;;2.96;72.76;94268.25;4848100;29;20098;-71
2021/04/19 02:37:02;;;;;;;20.50;14.05;;;;;;;2.94;73.53;94264.97;4864661;29;20041;-71
2021/04/19 02:39:39;;;;;;;18.73;13.43;;;;;;;2.96;74.05;94259.69;4875068;29;20037;-71
2021/04/19 02:42:05;;;;;;;19.40;13.43;;;;;;;2.91;73.80;94269.56;4875043;29;20044;-70
2021/04/19 02:44:33;;;;;;;18.23;14.32;;;;;;;2.96;74.36;94260.47;4876218;29;20051;-71
2021/04/19 02:46:59;;;;;;;17.25;14.18;;;;;;;2.93;74.37;94268.50;4931768;29;20040;-71
2021/04/19 02:49:26;;;;;;;21.67;14.55;;;;;;;2.83;74.01;94263.25;4921227;28;20032;-70
2021/04/19 02:51:54;;;;;;;18.50;13.82;;;;;;;2.74;74.07;94263.16;4959944;28;20034;-73
2021/04/19 02:54:21;;;;;;;18.00;13.35;;;;;;;2.64;74.65;94266.47;4930242;28;20031;-70
2021/04/19 02:57:00;;;;;;;20.08;13.35;;;;;;;2.52;73.71;94270.00;4964254;28;20069;-71
2021/04/19 02:59:29;;;;;;;20.38;13.88;;;;;;;2.35;74.00;94255.81;4992465;28;20120;-71
2021/04/19 03:02:06;;;;;;;17.30;12.95;;;;;;;2.31;74.90;94262.16;4972990;28;20084;-71
2021/04/19 03:04:38;;;;;;;18.90;13.82;;;;;;;2.24;74.55;94261.00;5043923;28;20031;-71
2021/04/19 03:07:07;;;;;;;19.98;14.68;;;;;;;2.18;75.36;94262.28;5029311;28;20066;-71
2021/04/19 03:09:32;;;;;;;19.77;14.40;;;;;;;2.09;74.91;94260.41;5034495;28;20021;-71
2021/04/19 03:12:02;;;;;;;20.02;13.85;;;;;;;2.04;74.68;94258.19;5036106;28;20021;-71
2021/04/19 03:14:31;;;;;;;;;;;;;;;1.84;75.50;94255.34;5069307;28;20025;-71
2021/04/19 03:17:16;;;;;;;18.58;13.80;;;;;;;1.64;75.58;94258.59;5052898;28;19912;-71
2021/04/19 03:20:12;;;;;;;18.75;13.38;;;;;;;1.57;75.52;94257.44;5034264;28;20029;-71
2021/04/19 03:22:44;;;;;;;20.88;14.85;;;;;;;1.34;75.98;94255.59;5010546;28;20034;-71
2021/04/19 03:25:10;;;;;;;22.02;14.95;;;;;;;1.40;76.05;94259.50;4963009;28;20034;-71
2021/04/19 03:27:36;;;;;;;21.23;14.82;;;;;;;1.42;76.02;94261.97;4973501;28;20080;-71
2021/04/19 03:30:03;;;;;;;21.73;15.23;;;;;;;1.42;75.30;94257.63;4966066;28;20026;-71
2021/04/19 03:32:36;;;;;;;22.65;15.38;;;;;;;1.34;75.66;94257.38;4972129;28;20045;-71
2021/04/19 03:35:22;;;;;;;20.58;14.10;;;;;;;1.23;76.24;94259.94;4983726;28;20125;-71
2021/04/19 03:37:49;;;;;;;23.15;15.30;;;;;;;1.17;75.96;94262.00;4978364;28;20040;-71
2021/04/19 03:40:19;;;;;;;21.20;14.77;;;;;;;1.21;76.17;94261.78;4978261;28;20103;-71
2021/04/19 03:42:45;;;;;;;;;;;;;;;1.05;76.12;94262.91;4963357;28;20018;-71
2021/04/19 03:45:11;;;;;;;22.95;15.65;;;;;;;1.07;76.08;94262.78;4991467;28;19933;-73
2021/04/19 03:47:39;;;;;;;26.50;15.35;;;;;;;1.09;75.84;94260.91;4943751;28;20128;-71
2021/04/19 03:50:07;;;;;;;22.00;16.08;;;;;;;0.96;76.14;94263.56;4993403;28;20060;-71
2021/04/19 03:52:36;;;;;;;25.52;17.52;;;;;;;1.00;75.70;94267.56;4979008;28;20065;-71
2021/04/19 03:55:12;;;;;;;25.27;15.90;;;;;;;0.76;76.24;94270.13;4976552;28;20057;-71
2021/04/19 03:57:38;;;;;;;23.88;15.48;;;;;;;0.61;77.00;94264.31;4978594;28;20026;-70
2021/04/19 04:00:05;;;;;;;20.50;14.48;;;;;;;0.63;75.85;94267.63;5003075;28;20099;-71
2021/04/19 04:02:41;;;;;;;22.70;15.68;;;;;;;0.68;76.23;94270.72;5019286;28;20036;-71
2021/04/19 04:05:14;;;;;;;23.52;15.57;;;;;;;0.71;75.38;94262.75;5033547;28;20235;-71
2021/04/19 04:07:43;;;;;;;25.42;17.02;;;;;;;0.71;76.06;94270.47;5054124;28;20021;-71
2021/04/19 04:10:19;;;;;;;24.67;15.88;;;;;;;0.65;75.73;94265.75;5057309;28;20040;-71
2021/04/19 04:12:51;;;;;;;24.75;16.17;;;;;;;0.64;75.63;94271.81;5028033;28;20032;-73
2021/04/19 04:15:19;;;;;;;22.52;15.63;;;;;;;0.69;74.87;94276.66;5033365;28;20029;-71
2021/04/19 04:18:04;;;;;;;23.55;15.98;;;;;;;0.56;75.58;94285.25;5026962;28;20055;-71
2021/04/19 04:20:30;;;;;;;25.90;16.27;;;;;;;0.49;76.49;94281.44;5027396;28;20099;-71
2021/04/19 04:23:03;;;;;;;29.30;16.75;;;;;;;0.54;76.35;94281.97;5055650;28;20030;-71
2021/04/19 04:25:31;;;;;;;23.67;16.85;;;;;;;0.49;76.93;94289.19;5012687;28;20120;-71
2021/04/19 04:27:58;;;;;;;25.48;16.67;;;;;;;0.37;77.37;94283.16;5035477;28;20112;-70
2021/04/19 04:30:24;;;;;;;23.13;16.15;;;;;;;0.41;77.34;94296.63;5031874;28;20033;-71
2021/04/19 04:32:49;;;;;;;22.92;16.45;;;;;;;0.43;77.54;94297.34;5047148;28;20033;-71
2021/04/19 04:35:18;;;;;;;26.15;16.60;;;;;;;0.41;77.36;94284.59;5019848;28;20095;-71
2021/04/19 04:37:53;;;;;;;26.92;17.15;;;;;;;0.49;76.78;94289.19;5024448;28;20024;-71
2021/04/19 04:40:18;;;;;;;27.33;16.42;;;;;;;0.49;76.40;94291.75;5034211;28;20119;-71
2021/04/19 04:42:44;;;;;;;27.30;16.15;;;;;;;0.47;75.54;94283.31;5030589;28;20036;-70
2021/04/19 04:45:10;;;;;;;24.25;15.68;;;;;;;0.52;75.97;94293.28;5047134;28;20021;-71
2021/04/19 04:48:19;;;;;;;25.50;16.50;;;;;;;0.41;76.67;94294.03;5034751;28;20025;-71
2021/04/19 04:51:14;;;;;;;25.98;16.85;;;;;;;0.42;76.39;94300.84;4977794;28;20046;-71
2021/04/19 04:54:09;;;;;;;24.83;15.52;;;;;;;0.37;76.19;94283.16;4989542;28;20038;-71
2021/04/19 04:56:49;;;;;;;27.13;16.52;;;;;;;0.30;76.76;94297.34;4961630;28;20094;-71
2021/04/19 04:59:20;;;;;;;23.88;16.13;;;;;;;0.31;76.43;94299.00;4960718;28;20027;-71
2021/04/19 05:01:47;;;;;;;29.23;18.15;;;;;;;0.27;76.62;94295.00;4994293;28;20521;-71
2021/04/19 05:04:14;;;;;;;25.83;17.08;;;;;;;0.31;76.89;94293.84;4974648;28;20034;-71
2021/04/19 05:06:50;;;;;;;28.13;17.27;;;;;;;0.32;76.69;94295.50;4969651;28;20034;-72
2021/04/19 05:09:35;;;;;;;26.08;17.50;;;;;;;0.32;76.81;94298.91;4977009;28;20036;-70
2021/04/19 05:12:00;;;;;;;30.23;16.83;;;;;;;0.35;76.04;94302.19;4993691;28;20061;-71
2021/04/19 05:14:28;;;;;;;25.55;16.67;;;;;;;0.32;76.83;94301.47;4984306;28;20034;-71
2021/04/19 05:16:53;;;;;;;28.70;17.92;;;;;;;0.23;76.93;94301.28;4965820;28;20018;-71
2021/04/19 05:19:21;;;;;;;32.58;19.75;;;;;;;0.36;76.97;94298.72;4977850;28;20065;-71
2021/04/19 05:21:47;;;;;;;28.67;17.02;;;;;;;0.40;76.61;94295.81;4960306;28;20045;-70
2021/04/19 05:24:22;;;;;;;30.48;18.50;;;;;;;0.41;77.04;94300.03;4977797;28;20125;-71
2021/04/19 05:26:57;;;;;;;29.67;18.65;;;;;;;0.37;76.82;94300.31;4954020;28;20056;-70
2021/04/19 05:29:23;;;;;;;25.92;17.52;;;;;;;0.54;75.88;94296.59;5031998;28;20075;-71
2021/04/19 05:32:06;;;;;;;26.52;18.23;;;;;;;0.64;76.10;94293.28;5033688;28;20021;-71
2021/04/19 05:34:32;;;;;;;28.60;17.70;;;;;;;0.72;76.32;94295.31;5028790;28;20033;-71
2021/04/19 05:37:03;;;;;;;24.40;17.50;;;;;;;0.73;75.45;94298.69;5036723;28;20036;-71
2021/04/19 05:39:36;;;;;;;31.02;19.63;;;;;;;0.74;76.82;94296.00;5046291;28;20020;-71
2021/04/19 05:42:01;;;;;;;31.13;19.35;;;;;;;0.80;76.96;94300.75;5034565;28;20040;-70
2021/04/19 05:44:27;;;;;;;;;;;;;;;0.77;76.97;94300.94;5026108;28;20025;-72
2021/04/19 05:46:52;;;;;;;;;;;;;;;0.95;76.95;94300.56;5047178;28;19924;-71
2021/04/19 05:49:24;;;;;;;;;;;;;;;1.09;75.73;94309.88;5033992;28;19921;-74
2021/04/19 05:51:53;;;;;;;;;;;;;;;1.10;75.97;94301.22;5047016;28;19913;-74
2021/04/19 05:54:47;;;;;;;;;;;;;;;1.09;75.75;94303.00;5050510;28;19971;-74
2021/04/19 06:00:06;;;;;;;;;;;;;;;1.10;77.58;94303.78;5033223;28;19954;-74
2021/04/19 06:02:45;;;;;;;;;;;;;;;1.06;77.17;94300.63;5005145;28;19927;-74
2021/04/19 06:08:27;;;;;;;;;;;;;;;1.20;77.09;94307.38;5003945;28;20065;-73
2021/04/19 06:11:04;;;;;;;;;;;;;;;1.26;76.77;94311.25;5001103;28;19929;-72
2021/04/19 06:13:30;;;;;;;;;;;;;;;1.59;75.70;94318.28;4976641;28;19925;-74
2021/04/19 06:16:04;;;;;;;;;;;;;;;1.77;75.87;94310.09;5010726;28;19926;-75
2021/04/19 06:18:40;;;;;;;;;;;;;;;1.90;75.87;94308.25;4981538;28;19918;-75
2021/04/19 06:21:36;;;;;;;;;;;;;;;1.98;75.31;94312.84;4973329;28;19989;-74
2021/04/19 06:24:03;;;;;;;28.30;18.38;;;;;;;2.22;75.15;94302.41;4996133;28;19917;-73
2021/04/19 06:26:32;;;;;;;26.98;19.67;;;;;;;2.30;75.07;94304.41;4988411;28;20130;-72
2021/04/19 06:28:58;;;;;;;28.48;17.80;;;;;;;2.47;74.90;94293.59;4966002;28;20038;-73
2021/04/19 06:31:25;;;;;;;30.45;19.85;;;;;;;2.52;75.52;94299.22;4978326;28;20054;-73
2021/04/19 06:34:22;;;;;;;28.90;19.55;;;;;;;2.48;75.53;94310.75;4983932;28;20076;-73
2021/04/19 06:36:49;;;;;;;27.08;18.85;;;;;;;2.64;74.52;94310.38;4972702;28;20039;-73
2021/04/19 06:39:18;;;;;;;25.08;17.33;;;;;;;2.77;74.38;94312.00;4923499;28;20039;-73
2021/04/19 06:41:46;;;;;;;28.38;19.25;;;;;;;2.93;74.12;94311.63;4940686;28;20129;-73
2021/04/19 06:44:13;;;;;;;27.52;18.83;;;;;;;3.16;73.63;94314.97;4920650;28;20046;-73
2021/04/19 06:46:40;;;;;;;24.83;17.02;;;;;;;3.48;72.46;94312.38;4898149;29;20119;-73
2021/04/19 06:49:09;;;;;;;25.33;17.15;;;;;;;3.72;72.21;94313.91;4915401;29;20038;-73
2021/04/19 06:51:35;;;;;;;20.63;15.02;;;;;;;3.94;70.42;94318.13;4916336;29;20201;-73
2021/04/19 06:54:01;;;;;;;25.02;17.10;;;;;;;4.12;70.90;94308.00;4914771;29;20122;-74
2021/04/19 06:56:40;;;;;;;23.13;15.75;;;;;;;4.40;69.34;94313.44;4922689;29;20038;-74
2021/04/19 06:59:13;;;;;;;24.83;17.35;;;;;;;4.51;68.45;94304.75;4900490;29;20040;-74
2021/04/19 07:01:43;;;;;;;22.80;15.13;;;;;;;4.77;67.13;94296.53;4957561;28;20105;-71
2021/04/19 07:04:13;;;;;;;23.13;15.48;;;;;;;4.70;67.79;94304.00;4951383;28;20030;-71
2021/04/19 07:06:41;;;;;;;20.80;14.63;;;;;;;5.08;66.01;94299.84;4920353;29;20032;-71
2021/04/19 07:09:13;;;;;;;22.65;15.68;;;;;;;5.35;65.71;94295.78;4951692;28;20035;-72
2021/04/19 07:11:42;;;;;;;18.88;13.50;;;;;;;5.55;65.33;94300.03;4970565;28;20135;-72
2021/04/19 07:14:09;;;;;;;21.95;16.10;;;;;;;5.51;65.79;94303.03;5026478;28;20028;-72
2021/04/19 07:16:42;;;;;;;22.25;15.70;;;;;;;5.64;65.82;94300.16;5048426;28;20021;-71
2021/04/19 07:19:18;;;;;;;22.73;15.98;;;;;;;6.05;65.72;94299.03;5048336;28;20029;-72
2021/04/19 07:21:48;;;;;;;21.42;14.98;;;;;;;6.03;64.68;94297.53;5043916;28;20101;-72
2021/04/19 07:24:15;;;;;;;20.15;13.57;;;;;;;6.23;62.65;94293.13;5046379;28;20024;-72
2021/04/19 07:26:56;;;;;;;19.10;14.02;;;;;;;6.34;61.18;94290.34;5037505;28;20086;-72
2021/04/19 07:29:22;;;;;;;20.33;14.90;;;;;;;6.45;61.67;94298.94;5032962;28;20021;-72
2021/04/19 07:31:49;;;;;;;21.23;15.77;;;;;;;6.48;63.35;94283.03;5045747;28;20036;-72
2021/04/19 07:34:21;;;;;;;21.85;16.42;;;;;;;6.49;62.18;94295.06;5051169;28;20029;-72
2021/04/19 07:37:15;;;;;;;21.52;15.07;;;;;;;6.75;59.92;94290.03;5027702;28;20120;-71
2021/04/19 07:39:44;;;;;;;22.02;15.95;;;;;;;6.64;60.98;94287.63;5011726;28;20049;-72
2021/04/19 07:42:10;;;;;;;21.60;15.63;;;;;;;6.01;63.71;94281.25;4992618;28;20048;-71
2021/04/19 07:44:40;;;;;;;20.30;14.65;;;;;;;6.33;60.18;94285.28;4961616;28;20156;-71
2021/04/19 07:47:34;;;;;;;20.75;14.85;;;;;;;6.39;60.84;94271.69;4958196;28;20030;-72
2021/04/19 07:50:22;;;;;;;21.27;14.52;;;;;;;6.58;60.86;94269.03;4997519;28;20038;-72
2021/04/19 07:53:00;;;;;;;22.95;16.15;;;;;;;5.87;64.43;94269.50;4984307;28;20080;-71
2021/04/19 07:55:30;;;;;;;22.23;16.10;;;;;;;6.46;61.93;94258.94;4971593;28;20032;-71
2021/04/19 07:57:57;;;;;;;21.08;15.88;;;;;;;5.97;64.11;94256.50;4984999;28;20034;-72
2021/04/19 08:00:23;;;;;;;21.67;16.15;;;;;;;6.30;63.18;94254.38;4960837;28;20037;-72
2021/04/19 08:03:40;;;;;;;22.63;16.67;;;;;;;5.64;64.46;94243.84;5005948;28;20048;-71
2021/04/19 08:06:43;;;;;;;20.67;15.73;;;;;;;6.14;62.48;94249.78;4958382;28;20059;-74
2021/04/19 08:09:37;;;;;;;24.13;15.40;;;;;;;5.98;60.96;94246.00;4884410;29;20032;-74
2021/04/19 08:12:10;;;;;;;20.73;15.07;;;;;;;6.02;61.42;94247.34;4874983;29;20060;-74
2021/04/19 08:14:53;;;;;;;20.45;14.15;;;;;;;6.23;60.47;94247.16;4885550;29;20121;-74
2021/04/19 08:17:44;;;;;;;17.70;12.95;;;;;;;5.90;60.31;94243.25;4864288;29;20032;-73
2021/04/19 08:20:18;;;;;;;24.08;15.50;;;;;;;6.20;60.51;94246.59;4895577;29;20481;-73
2021/04/19 08:22:46;;;;;;;15.57;12.25;;;;;;;6.56;57.74;94241.53;4889952;29;20058;-71
2021/04/19 08:25:13;;;;;;;15.90;12.35;;;;;;;6.40;58.41;94242.97;4901832;29;20041;-71
2021/04/19 08:27:44;;;;;;;15.82;12.02;;;;;;;6.52;58.71;94241.00;4896353;29;20121;-72
2021/04/19 08:30:26;;;;;;;15.65;11.20;;;;;;;6.99;56.92;94234.00;4890068;29;20057;-71
2021/04/19 08:32:53;;;;;;;15.93;12.23;;;;;;;7.53;57.29;94232.22;4895138;29;20066;-71
2021/04/19 08:35:20;;;;;;;15.30;11.02;;;;;;;7.61;54.90;94236.66;4891648;29;20059;-71
2021/04/19 08:37:56;;;;;;;14.75;10.93;;;;;;;7.91;55.19;94238.03;4912238;29;20048;-72
2021/04/19 08:40:21;;;;;;;17.40;14.18;;;;;;;7.32;60.05;94237.75;4882368;29;20036;-72
2021/04/19 08:42:46;;;;;;;17.42;13.95;;;;;;;7.33;61.63;94246.34;4974554;28;20048;-71
2021/04/19 08:45:15;;;;;;;19.27;13.77;;;;;;;7.01;60.82;94240.72;5037616;28;20078;-71
2021/04/19 08:47:40;;;;;;;18.23;14.43;;;;;;;7.39;60.42;94241.38;5040308;28;20021;-71
2021/04/19 08:50:07;;;;;;;18.65;14.95;;;;;;;7.00;61.95;94246.06;5028197;28;20026;-71
2021/04/19 08:52:36;;;;;;;20.70;14.95;;;;;;;6.81;61.71;94245.22;5036241;28;20040;-71
2021/04/19 08:55:05;;;;;;;18.33;14.65;;;;;;;7.21;62.83;94238.78;5036789;28;20056;-71
2021/04/19 08:57:34;;;;;;;17.35;13.32;;;;;;;7.49;59.94;94246.50;5033848;28;20380;-71
2021/04/19 09:00:02;;;;;;;17.45;13.43;;;;;;;7.32;60.38;94242.16;5060505;28;20024;-71
2021/04/19 09:02:27;;;;;;;18.30;13.88;;;;;;;7.32;59.88;94252.56;5038261;28;20037;-70
2021/04/19 09:05:14;;;;;;;18.60;13.88;;;;;;;6.87;60.46;94252.44;5059120;28;20064;-71
2021/04/19 09:08:12;;;;;;;19.63;14.55;;;;;;;6.87;60.70;94255.03;5047391;28;20083;-73
2021/04/19 09:11:07;;;;;;;20.48;14.27;;;;;;;7.61;59.53;94260.09;4979093;28;20030;-71
2021/04/19 09:13:44;;;;;;;18.75;14.90;;;;;;;7.81;59.07;94247.72;4989643;28;20025;-72
2021/04/19 09:16:31;;;;;;;18.08;13.15;;;;;;;8.18;58.01;94257.06;4981975;28;20338;-71
2021/04/19 09:19:07;;;;;;;16.42;13.65;;;;;;;8.67;56.26;94246.09;4977463;28;20105;-72
2021/04/19 09:21:42;;;;;;;18.35;13.15;;;;;;;7.98;57.97;94247.81;4997150;28;20040;-71
2021/04/19 09:24:23;;;;;;;17.65;12.60;;;;;;;7.91;56.40;94248.47;4978665;28;20054;-72
2021/04/19 09:26:58;;;;;;;16.00;11.50;;;;;;;8.14;54.88;94249.72;4986376;28;20134;-72
2021/04/19 09:29:32;;;;;;;14.63;11.75;;;;;;;8.53;54.40;94242.28;4962336;28;20037;-71
2021/04/19 09:32:26;;;;;;;14.02;11.48;;;;;;;8.73;54.28;94252.44;4984635;28;20030;-72
2021/04/19 09:34:54;;;;;;;16.55;13.07;;;;;;;8.98;55.50;94248.13;4935706;29;20087;-72
2021/04/19 09:37:34;;;;;;;17.52;12.95;;;;;;;8.92;53.49;94248.75;4920579;29;20036;-72
2021/04/19 09:40:05;;;;;;;16.48;13.30;;;;;;;8.90;54.59;94245.50;4935935;29;20118;-71
2021/04/19 09:43:03;;;;;;;15.52;12.27;;;;;;;9.27;52.77;94247.72;4919685;29;20054;-71
2021/04/19 09:45:44;;;;;;;13.65;11.20;;;;;;;9.88;49.29;94250.00;4946498;28;20042;-72
2021/04/19 09:48:39;;;;;;;14.27;10.52;;;;;;;9.84;49.09;94242.66;4984333;28;20080;-69
2021/04/19 09:51:15;;;;;;;15.88;12.27;;;;;;;10.51;50.53;94234.50;4959971;28;20034;-70
2021/04/19 09:53:45;;;;;;;12.57;9.93;;;;;;;11.42;47.49;94240.13;4976500;28;20116;-69
2021/04/19 09:56:22;;;;;;;13.15;10.05;;;;;;;11.76;43.42;94235.44;4961537;28;20129;-69
2021/04/19 09:59:07;;;;;;;11.02;8.68;;;;;;;11.40;43.16;94241.28;4964638;28;20043;-70
2021/04/19 10:01:34;;;;;;;10.05;7.10;;;;;;;10.86;41.96;94235.03;4964944;28;20034;-69
2021/04/19 10:04:01;;;;;;;8.20;6.63;;;;;;;11.62;40.45;94237.81;4972178;28;20026;-70
2021/04/19 10:06:58;;;;;;;7.28;5.47;;;;;;;12.81;37.69;94231.06;4968529;28;20041;-70
2021/04/19 10:09:25;;;;;;;6.35;4.45;;;;;;;13.98;32.93;94234.50;4971206;28;20054;-72
2021/04/19 10:12:14;;;;;;;7.82;4.88;;;;;;;13.91;32.48;94218.69;5005965;28;20078;-72
2021/04/19 10:14:45;;;;;;;6.72;4.93;;;;;;;13.74;32.17;94230.47;5026251;28;20085;-72
2021/04/19 10:17:40;;;;;;;7.03;4.35;;;;;;;14.06;31.00;94226.50;5044294;28;20066;-72
2021/04/19 10:20:19;;;;;;;7.07;4.90;;;;;;;14.46;31.55;94221.47;5034128;28;20483;-72
2021/04/19 10:23:03;;;;;;;;;;;;;;;13.26;33.42;94217.84;5006662;28;20049;-72
2021/04/19 10:25:55;;;;;;;7.07;5.13;;;;;;;14.13;34.19;94216.00;5025214;28;19920;-72
2021/04/19 10:28:41;;;;;;;6.82;4.35;;;;;;;14.62;31.21;94217.72;4994565;28;20420;-72
2021/04/19 10:31:25;;;;;;;6.75;4.90;;;;;;;14.11;31.63;94212.75;5031771;28;20078;-71
2021/04/19 10:33:52;;;;;;;7.32;4.85;;;;;;;14.14;35.48;94215.81;5014243;28;20037;-73
2021/04/19 10:36:25;;;;;;;7.03;5.47;;;;;;;13.56;32.06;94208.06;5014514;28;20041;-72
2021/04/19 10:39:04;;;;;;;6.20;4.90;;;;;;;13.11;33.61;94208.22;5002719;28;20053;-73
2021/04/19 10:41:34;;;;;;;10.52;8.80;;;;;;;12.70;41.51;94208.75;5013750;28;20092;-72
2021/04/19 10:44:00;;;;;;;10.18;8.43;;;;;;;12.25;40.46;94215.81;5018094;28;20063;-72
2021/04/19 10:46:32;;;;;;;10.77;9.00;;;;;;;11.97;42.08;94212.00;5002907;28;20041;-72
2021/04/19 10:49:08;;;;;;;13.65;9.70;;;;;;;11.29;42.88;94209.25;4976072;28;20048;-71
2021/04/19 10:51:38;;;;;;;12.90;9.45;;;;;;;11.37;41.64;94202.31;5027930;28;20029;-72
2021/04/19 10:54:08;;;;;;;11.75;8.52;;;;;;;12.37;40.46;94197.81;4996776;28;20321;-73
2021/04/19 10:56:39;;;;;;;20.02;8.02;;;;;;;11.86;40.01;94201.09;5012408;28;20385;-71
2021/04/19 10:59:08;;;;;;;10.57;8.15;;;;;;;11.29;41.67;94195.34;5007345;28;20037;-71
2021/04/19 11:01:35;;;;;;;10.82;8.10;;;;;;;10.35;44.43;94197.97;5030245;28;20121;-72
2021/04/19 11:04:01;;;;;;;11.93;8.18;;;;;;;12.06;39.34;94198.81;5032710;28;20028;-73
2021/04/19 11:07:19;;;;;;;11.05;8.40;;;;;;;11.40;39.62;94191.50;5035881;28;20024;-71
2021/04/19 11:09:46;;;;;;;9.05;6.80;;;;;;;11.53;39.82;94191.69;5019793;28;20120;-72
2021/04/19 11:12:11;;;;;;;8.02;6.15;;;;;;;12.49;39.35;94191.91;5015111;28;20037;-71
2021/04/19 11:14:38;;;;;;;9.27;6.32;;;;;;;13.20;40.71;94180.00;5008086;28;20021;-72
2021/04/19 11:17:07;;;;;;;8.68;5.72;;;;;;;14.69;33.52;94181.72;5016700;28;20028;-72
2021/04/19 11:19:40;;;;;;;7.60;5.60;;;;;;;14.69;30.37;94178.28;4997532;28;20034;-71
2021/04/19 11:22:26;;;;;;;6.72;5.07;;;;;;;15.00;30.81;94177.78;5034247;28;20025;-70
2021/04/19 11:25:16;;;;;;;6.57;5.47;;;;;;;16.14;31.80;94180.53;4993624;28;20132;-71
2021/04/19 11:28:14;;;;;;;6.47;5.18;;;;;;;17.02;28.65;94173.19;4993964;28;20030;-71
2021/04/19 11:30:40;;;;;;;5.95;4.90;;;;;;;16.86;29.40;94169.16;5021189;28;20036;-71
2021/04/19 11:33:22;;;;;;;6.72;5.25;;;;;;;15.07;30.25;94169.91;5001121;28;20041;-71
2021/04/19 11:36:06;;;;;;;6.38;5.05;;;;;;;14.01;30.72;94171.81;4981446;28;20025;-71
2021/04/19 11:38:34;;;;;;;7.70;5.60;;;;;;;13.84;33.79;94165.19;4998768;28;20041;-71
2021/04/19 11:41:08;;;;;;;10.45;5.50;;;;;;;15.19;31.32;94167.50;5015338;28;20029;-71
2021/04/19 11:43:38;;;;;;;8.20;6.05;;;;;;;13.40;33.36;94171.53;4997702;28;20030;-71
2021/04/19 11:46:04;;;;;;;6.93;5.57;;;;;;;17.27;31.26;94167.16;5014805;28;20059;-71
2021/04/19 11:48:39;;;;;;;7.60;5.78;;;;;;;19.43;25.71;94164.84;5043901;28;20036;-72
2021/04/19 11:51:16;;;;;;;8.00;5.47;;;;;;;25.56;19.29;94162.78;5037257;28;20120;-72
2021/04/19 11:53:49;;;;;;;7.95;5.45;;;;;;;22.91;19.81;94161.06;5030619;28;20079;-72
2021/04/19 11:56:21;;;;;;;6.57;5.00;;;;;;;24.09;18.62;94163.38;5054010;28;20417;-71
2021/04/19 11:58:53;;;;;;;7.03;5.85;;;;;;;18.69;25.33;94165.75;5034733;28;20029;-71
2021/04/19 12:01:19;;;;;;;7.70;6.00;;;;;;;16.84;26.75;94165.91;5047700;28;20102;-72
2021/04/19 12:04:16;;;;;;;8.20;6.40;;;;;;;15.60;31.44;94165.69;5045781;28;20075;-72
2021/04/19 12:06:43;;;;;;;7.55;6.20;;;;;;;16.96;28.78;94156.34;5016078;28;20091;-72
2021/04/19 12:09:09;;;;;;;9.48;7.40;;;;;;;17.20;29.57;94161.88;5005873;28;20095;-72